20:48
Airports
History
Links
Donate
Help keep this website running!
PayPal
Bitcoin
This page is community maintained. The information is intended for PC simulator navigation or reference.
Always use approved charts for navigation.
0FD0
Big G
Big G (0FD0)
Ormond Beach, Florida, United States (32174)
4
Lat/Lng:29° 16' 2.92" N / 81° 13' 48.22" W
29.267479 / -81.230061
Elevation:40'ft / 12mMSL
ID / ICAO:0FD0
Runways:1
Longest:09-27
Grass 1,223m / 4,013ft
Nearby Weather19:53 GMT 2017-09-19
Nearby weather at KDAB, Daytona Beach Intl located 12.0 nautical miles from 0FD0
Altimeter: 29.96
Visibility: 10.0 statute miles
Wind: 9 knots (from 050°)
Temp: 30°c / 86°f
Humidity: 58.6%

METAR: KDAB 191953Z 05009KT 10SM FEW035 FEW150 30/21 A2996 RMK AO2 SLP144 T03000211

(Powered by phpweather)
Nearby VORs <50NM
Nearby NDBs
Runway 09 / 27
Dimensions:1223.1 x 22.9m 4013' x 75'ft
Surface:Grass
Runway 09 [A]Runway 27 [B]
Heading:087°TH 267°TH
Lat:
Lng:
29° 16' 1.89"N
81° 14' 10.83"W
29° 16' 3.96"N
81° 13' 25.61"W
User Notes and Comments
29° 16' 2.92" N / 81° 13' 48.22" W
Distance To
Airport ID:
Nearby Airports
(R) Cross Creek Farms 2.0 NM
04FL SSE 165°
(R) Lafayette Landings 7.1 NM
FD90 SSW 197°
(C) Ormond Beach Muni 7.4 NM
KOMN ENE 71°
(C) Daytona Beach Intl 12.0 NM
KDAB ( WX ) ESE 120°
4 Bob Lee Flight Strip 12.4 NM
1J6 SSW 204°
4 Pierson Muni 13.9 NM
2J8 W 265°
(C) Flagler County 13.9 NM
KXFL N
VFR Chart
Flight Planning at SkyVector.com